Time;durP1;ratioP1;P1;durP2;ratioP2;P2;SDS_P1;SDS_P2;PMS_P1;PMS_P2;Temp;Humidity;BMP_temperature;BMP_pressure;BME280_temperature;BME280_humidity;BME280_pressure;Samples;Min_cycle;Max_cycle;Signal;HPM_P1;HPM_P2
2022/02/03 00:00:20;;;;;;;2.40;1.00;;;7.30;99.90;;;;;;5135464;27;20426;-57
2022/02/03 00:02:55;;;;;;;1.40;0.90;;;7.30;99.90;;;;;;5134705;27;20426;-57
2022/02/03 00:05:31;;;;;;;1.80;1.00;;;7.30;99.90;;;;;;5135980;27;20758;-57
2022/02/03 00:08:09;;;;;;;1.63;1.00;;;7.30;99.90;;;;;;5135430;27;20429;-57
2022/02/03 00:10:47;;;;;;;1.80;1.00;;;7.30;99.90;;;;;;5135897;27;20820;-56
2022/02/03 00:24:27;;;;;;;1.67;0.90;;;7.60;99.90;;;;;;5136109;27;20863;-57
2022/02/03 00:27:05;;;;;;;1.20;0.90;;;7.70;99.90;;;;;;5135778;27;20521;-54
2022/02/03 00:29:50;;;;;;;1.40;0.90;;;7.70;99.90;;;;;;5135168;27;20422;-56
2022/02/03 00:32:40;;;;;;;2.15;0.90;;;7.70;99.90;;;;;;5135877;27;20475;-61
2022/02/03 00:35:25;;;;;;;1.20;0.90;;;7.70;99.90;;;;;;5134508;27;20468;-57
2022/02/03 00:38:15;;;;;;;1.33;0.90;;;7.70;99.90;;;;;;5132916;27;20513;-56
2022/02/03 00:49:15;;;;;;;1.90;1.10;;;7.70;99.90;;;;;;5134011;27;20394;-58
2022/02/03 00:51:46;;;;;;;3.90;1.00;;;7.80;99.90;;;;;;5135469;27;20821;-57
2022/02/03 00:54:13;;;;;;;1.60;0.90;;;7.80;99.90;;;;;;5135322;27;20426;-57
2022/02/03 00:56:45;;;;;;;1.20;0.90;;;7.80;99.90;;;;;;5135292;27;20454;-57
2022/02/03 00:59:14;;;;;;;1.63;0.80;;;7.70;99.90;;;;;;5134262;27;20440;-55
2022/02/03 01:01:46;;;;;;;1.30;0.80;;;7.80;99.90;;;;;;5134781;27;20479;-57
2022/02/03 01:04:14;;;;;;;1.00;0.70;;;7.80;99.90;;;;;;5134500;27;20500;-58
2022/02/03 01:06:48;;;;;;;1.80;0.80;;;7.70;99.90;;;;;;5135725;27;20502;-58
2022/02/03 01:09:19;;;;;;;1.25;0.80;;;7.70;99.90;;;;;;5134409;27;20418;-57
2022/02/03 01:11:53;;;;;;;1.30;0.90;;;7.80;99.90;;;;;;5134470;27;20453;-57
2022/02/03 01:14:25;;;;;;;1.40;0.80;;;7.80;99.90;;;;;;5135885;27;20422;-57
2022/02/03 01:17:11;;;;;;;1.10;0.70;;;7.70;99.90;;;;;;5136493;27;20813;-57
2022/02/03 01:20:15;;;;;;;1.40;0.80;;;7.70;99.90;;;;;;5135577;27;20460;-57
2022/02/03 01:45:16;;;;;;;1.40;0.90;;;7.70;99.90;;;;;;5077573;28;20403;-58
2022/02/03 01:47:55;;;;;;;1.60;1.00;;;7.80;99.90;;;;;;5135656;27;20461;-58
2022/02/03 01:53:09;;;;;;;1.50;0.80;;;7.90;99.90;;;;;;5135602;27;20398;-59
2022/02/03 01:55:46;;;;;;;1.38;0.80;;;7.80;99.90;;;;;;5135707;27;20414;-58
2022/02/03 01:58:18;;;;;;;1.50;0.90;;;7.80;99.90;;;;;;5135673;27;20458;-59
2022/02/03 02:00:59;;;;;;;1.33;0.90;;;7.90;99.90;;;;;;5136199;28;20509;-58
2022/02/03 02:03:38;;;;;;;1.42;0.90;;;8.00;99.90;;;;;;5136381;28;20529;-58
2022/02/03 02:06:14;;;;;;;1.38;0.90;;;8.00;99.90;;;;;;5135816;28;20437;-58
2022/02/03 02:08:45;;;;;;;1.30;0.80;;;7.80;99.90;;;;;;5136099;28;20411;-58
2022/02/03 02:11:38;;;;;;;1.20;0.90;;;7.80;99.90;;;;;;5136064;28;20538;-58
2022/02/03 02:14:30;;;;;;;1.10;0.70;;;7.80;99.90;;;;;;5135972;28;20427;-58
2022/02/03 02:17:48;;;;;;;1.50;0.85;;;7.80;99.90;;;;;;5134566;28;20505;-58
2022/02/03 02:37:24;;;;;;;1.73;1.10;;;7.50;99.90;;;;;;5134586;28;20436;-58
2022/02/03 02:40:18;;;;;;;1.70;1.10;;;7.50;99.90;;;;;;5134684;28;20430;-58
2022/02/03 02:42:55;;;;;;;1.80;1.10;;;7.50;99.90;;;;;;5136002;28;20411;-58
2022/02/03 02:45:32;;;;;;;2.08;1.00;;;7.60;99.90;;;;;;5136222;28;20418;-58
2022/02/03 02:48:07;;;;;;;1.83;1.00;;;7.60;99.90;;;;;;5135702;28;20513;-58
2022/02/03 02:50:44;;;;;;;1.30;0.90;;;7.70;99.90;;;;;;5129976;28;20876;-58
2022/02/03 02:53:26;;;;;;;1.65;0.90;;;7.70;99.90;;;;;;5135728;28;20442;-58
2022/02/03 02:56:13;;;;;;;1.30;0.90;;;7.80;99.90;;;;;;5134417;27;20426;-58
2022/02/03 02:59:02;;;;;;;1.60;1.00;;;7.80;99.90;;;;;;5139035;27;20452;-58
2022/02/03 03:29:40;;;;;;;1.60;0.90;;;7.40;99.90;;;;;;5138738;27;20391;-57
2022/02/03 03:35:11;;;;;;;1.77;0.90;;;7.40;99.90;;;;;;5120467;27;20406;-58
2022/02/03 03:37:45;;;;;;;2.17;0.80;;;7.40;99.90;;;;;;5138093;27;20429;-58
2022/02/03 03:40:13;;;;;;;1.35;0.80;;;7.30;99.90;;;;;;5136187;27;20470;-58
2022/02/03 03:42:44;;;;;;;1.38;0.80;;;7.30;99.90;;;;;;5138718;27;20457;-58
2022/02/03 03:45:13;;;;;;;1.23;0.80;;;7.30;99.90;;;;;;5137628;27;20833;-58
2022/02/03 03:47:47;;;;;;;1.27;0.80;;;7.30;99.90;;;;;;5138527;27;20591;-58
2022/02/03 03:50:16;;;;;;;1.20;0.80;;;7.20;99.90;;;;;;5137167;27;20880;-58
2022/02/03 03:52:52;;;;;;;1.33;0.90;;;7.20;99.90;;;;;;5138548;27;20495;-58
2022/02/03 03:55:31;;;;;;;1.35;0.80;;;7.20;99.90;;;;;;5137904;27;20771;-58
2022/02/03 03:58:17;;;;;;;1.67;0.90;;;7.20;99.90;;;;;;5138291;27;20421;-57
2022/02/03 04:30:36;;;;;;;2.20;1.10;;;7.10;99.90;;;;;;5053162;28;20572;-58
2022/02/03 04:33:41;;;;;;;1.83;1.00;;;7.10;99.90;;;;;;5137354;27;20414;-58
2022/02/03 04:42:22;;;;;;;2.00;1.00;;;7.20;99.90;;;;;;5135502;27;20406;-58
2022/02/03 04:51:17;;;;;;;3.00;1.10;;;7.00;99.90;;;;;;5135818;27;20909;-58
2022/02/03 04:57:39;;;;;;;1.77;1.00;;;7.00;99.90;;;;;;5135776;27;20421;-58
2022/02/03 05:03:16;;;;;;;1.60;1.02;;;6.90;99.90;;;;;;5133796;27;20398;-58
2022/02/03 05:06:01;;;;;;;1.30;0.90;;;7.00;99.90;;;;;;5133477;27;20483;-58
2022/02/03 05:08:47;;;;;;;1.63;1.00;;;7.00;99.90;;;;;;5136823;27;20411;-57
2022/02/03 05:11:43;;;;;;;2.35;1.20;;;7.00;99.90;;;;;;5135929;27;20466;-58
2022/02/03 05:17:32;;;;;;;1.73;1.10;;;7.00;99.90;;;;;;5090119;27;20403;-58
2022/02/03 05:26:22;;;;;;;1.60;0.90;;;7.20;99.90;;;;;;5134830;27;20402;-58
2022/02/03 05:32:58;;;;;;;1.33;0.90;;;7.20;99.90;;;;;;5135022;27;20411;-57
2022/02/03 05:42:21;;;;;;;2.92;1.10;;;7.10;99.90;;;;;;5051059;28;20803;-58
2022/02/03 05:45:21;;;;;;;1.50;0.90;;;7.10;99.90;;;;;;5134925;27;20509;-58
2022/02/03 05:48:22;;;;;;;1.63;1.10;;;7.10;99.90;;;;;;5134754;27;20755;-58
2022/02/03 06:04:58;;;;;;;2.13;1.15;;;7.00;99.90;;;;;;5133798;28;20402;-57
2022/02/03 06:12:59;;;;;;;2.97;1.20;;;6.90;99.90;;;;;;5135109;28;20528;-57
2022/02/03 06:15:35;;;;;;;2.38;1.20;;;6.90;99.90;;;;;;5133952;28;20730;-57
2022/02/03 06:23:51;;;;;;;2.20;1.20;;;7.10;99.90;;;;;;5133925;28;20841;-57
2022/02/03 06:29:05;;;;;;;2.00;1.10;;;7.10;99.90;;;;;;5132708;28;20674;-57
2022/02/03 06:31:35;;;;;;;1.97;1.10;;;7.20;99.90;;;;;;5134537;27;20422;-57
2022/02/03 06:34:04;;;;;;;1.75;1.02;;;7.20;99.90;;;;;;5136835;27;20415;-58
2022/02/03 06:36:31;;;;;;;1.90;1.10;;;7.20;99.90;;;;;;5136605;27;20422;-57
2022/02/03 06:38:58;;;;;;;2.50;1.10;;;7.20;99.90;;;;;;5136409;27;20418;-58
2022/02/03 06:41:25;;;;;;;2.10;1.10;;;7.20;99.90;;;;;;5136125;27;20419;-57
2022/02/03 06:43:52;;;;;;;1.88;1.10;;;7.20;99.90;;;;;;5137528;27;20501;-56
2022/02/03 06:46:19;;;;;;;3.40;1.10;;;7.20;99.90;;;;;;5136188;27;20490;-58
2022/02/03 06:48:53;;;;;;;2.03;1.00;;;7.20;99.90;;;;;;5135166;27;20810;-58
2022/02/03 06:51:29;;;;;;;1.70;1.10;;;7.10;99.90;;;;;;5134817;27;20426;-58
2022/02/03 06:54:03;;;;;;;1.50;1.00;;;7.10;99.90;;;;;;5138453;27;20437;-58
2022/02/03 06:56:36;;;;;;;1.80;1.00;;;7.10;99.90;;;;;;5137520;27;20422;-58
2022/02/03 06:59:07;;;;;;;2.30;1.10;;;7.10;99.90;;;;;;5138414;27;20426;-57
2022/02/03 07:01:38;;;;;;;2.60;1.10;;;7.10;99.90;;;;;;5138026;27;20512;-57
2022/02/03 07:04:16;;;;;;;1.80;1.00;;;7.10;99.90;;;;;;5138665;27;20415;-57
2022/02/03 07:06:47;;;;;;;1.77;0.90;;;7.10;99.90;;;;;;5137663;27;20495;-58
2022/02/03 07:09:15;;;;;;;1.80;1.00;;;7.20;99.90;;;;;;5138901;27;20403;-58
2022/02/03 07:11:44;;;;;;;2.20;1.00;;;7.20;99.90;;;;;;5137949;27;20671;-58
2022/02/03 07:14:12;;;;;;;1.60;0.90;;;7.20;99.90;;;;;;5138587;27;20892;-57
2022/02/03 07:16:46;;;;;;;2.30;0.90;;;7.20;99.90;;;;;;5136359;27;20450;-57
2022/02/03 07:19:14;;;;;;;1.30;0.90;;;7.30;99.90;;;;;;5136853;27;20525;-53
2022/02/03 07:21:41;;;;;;;1.40;0.80;;;7.30;99.90;;;;;;5136525;27;20597;-56
2022/02/03 07:24:10;;;;;;;1.80;1.00;;;7.30;99.90;;;;;;5137948;27;20458;-55
2022/02/03 07:26:36;;;;;;;2.00;1.00;;;7.30;99.90;;;;;;5134224;27;20516;-54
2022/02/03 07:29:04;;;;;;;1.90;1.00;;;7.40;99.90;;;;;;5135811;27;20502;-54
2022/02/03 07:31:31;;;;;;;1.30;0.90;;;7.40;99.90;;;;;;5135330;27;20790;-58
2022/02/03 07:34:05;;;;;;;1.90;1.00;;;7.50;99.90;;;;;;5137271;27;20471;-56
2022/02/03 07:36:32;;;;;;;1.52;0.90;;;7.60;99.90;;;;;;5135647;27;20688;-54
2022/02/03 07:39:01;;;;;;;1.90;0.90;;;7.60;99.90;;;;;;5137284;27;20422;-51
2022/02/03 07:41:29;;;;;;;1.55;0.80;;;7.60;99.90;;;;;;5136220;27;20433;-55
2022/02/03 07:43:56;;;;;;;1.30;0.80;;;7.60;99.90;;;;;;5135716;27;20506;-52
2022/02/03 07:46:24;;;;;;;1.60;0.90;;;7.70;99.90;;;;;;5133535;27;20762;-52
2022/02/03 07:48:52;;;;;;;1.30;0.80;;;7.70;99.90;;;;;;5135383;27;20419;-52
2022/02/03 07:51:19;;;;;;;1.30;0.85;;;7.70;99.90;;;;;;5134400;27;20521;-55
2022/02/03 07:53:46;;;;;;;1.60;1.10;;;7.70;99.90;;;;;;5135857;27;20446;-52
2022/02/03 07:56:13;;;;;;;1.48;0.80;;;7.70;99.90;;;;;;5134861;27;20417;-53
2022/02/03 07:58:42;;;;;;;2.00;0.90;;;7.70;99.90;;;;;;5135359;27;20502;-63
2022/02/03 08:01:09;;;;;;;1.20;0.80;;;7.70;99.90;;;;;;5116823;27;20437;-56
2022/02/03 08:03:41;;;;;;;1.50;1.00;;;7.70;99.90;;;;;;5137114;27;20438;-57
2022/02/03 08:06:13;;;;;;;1.30;0.90;;;7.70;99.90;;;;;;5136234;27;20432;-57
2022/02/03 08:08:44;;;;;;;1.60;1.05;;;7.70;99.90;;;;;;5137495;27;20414;-57
2022/02/03 08:11:14;;;;;;;1.60;0.90;;;7.70;99.90;;;;;;5136010;27;20422;-56
2022/02/03 08:13:54;;;;;;;1.30;0.90;;;7.70;99.90;;;;;;5137075;27;20690;-57
2022/02/03 08:16:26;;;;;;;1.50;0.80;;;7.70;99.90;;;;;;5135719;27;20419;-57
2022/02/03 08:18:59;;;;;;;1.73;0.80;;;7.80;99.90;;;;;;5136876;27;20423;-56
2022/02/03 08:21:26;;;;;;;1.45;0.80;;;8.00;99.90;;;;;;5134961;27;20842;-57
2022/02/03 08:26:49;;;;;;;1.65;0.90;;;8.50;99.90;;;;;;5086603;27;20406;-57
2022/02/03 08:32:08;;;;;;;1.52;1.00;;;8.30;99.90;;;;;;5132441;27;20878;-57
2022/02/03 08:34:43;;;;;;;1.40;0.90;;;8.30;99.90;;;;;;5132314;27;20475;-57
2022/02/03 08:37:11;;;;;;;1.20;0.80;;;8.20;99.90;;;;;;5132275;27;20414;-57
2022/02/03 08:39:50;;;;;;;1.40;0.80;;;8.20;99.90;;;;;;5132492;27;20422;-56
2022/02/03 08:42:17;;;;;;;1.50;0.90;;;8.30;99.90;;;;;;5135072;27;20419;-58
2022/02/03 08:44:55;;;;;;;1.15;0.80;;;8.20;99.90;;;;;;5134766;27;20421;-58
2022/02/03 08:47:22;;;;;;;0.90;0.60;;;8.30;99.90;;;;;;5135858;27;20464;-55
2022/02/03 08:49:48;;;;;;;2.92;1.38;;;8.50;99.90;;;;;;5134871;27;20880;-56
2022/02/03 08:52:26;;;;;;;1.30;0.80;;;8.60;99.90;;;;;;5136090;27;20482;-56
2022/02/03 08:55:01;;;;;;;12.05;8.48;;;8.70;99.90;;;;;;5133057;27;20497;-56
2022/02/03 08:57:40;;;;;;;1.10;0.70;;;8.70;99.90;;;;;;5135337;27;20415;-55
2022/02/03 09:00:32;;;;;;;1.52;0.80;;;8.80;99.90;;;;;;5133431;27;20431;-57
2022/02/03 09:36:44;;;;;;;1.00;0.60;;;8.60;99.90;;;;;;5114210;28;20561;-58
2022/02/03 09:39:18;;;;;;;0.90;0.50;;;8.60;99.90;;;;;;5109854;28;20722;-60
2022/02/03 09:44:56;;;;;;;0.97;0.60;;;8.60;99.90;;;;;;5113342;28;20431;-60
2022/02/03 09:56:11;;;;;;;1.10;0.50;;;8.70;99.90;;;;;;5111007;28;20404;-58
2022/02/03 09:58:54;;;;;;;1.60;1.10;;;8.70;99.90;;;;;;5114752;28;20427;-59
2022/02/03 10:01:34;;;;;;;0.70;0.50;;;8.70;99.90;;;;;;5123191;28;20430;-59
2022/02/03 10:04:11;;;;;;;0.80;0.50;;;8.80;99.90;;;;;;5134352;28;20415;-58
2022/02/03 10:06:53;;;;;;;1.50;0.50;;;8.90;99.90;;;;;;5116075;28;20429;-59
2022/02/03 10:09:40;;;;;;;0.80;0.50;;;9.00;99.90;;;;;;5134102;28;20418;-59
2022/02/03 10:12:10;;;;;;;0.80;0.55;;;9.00;99.90;;;;;;5132070;28;20483;-59
2022/02/03 10:14:40;;;;;;;10.10;5.60;;;9.10;99.90;;;;;;5132819;28;20525;-58
2022/02/03 10:17:08;;;;;;;1.20;0.60;;;9.20;99.90;;;;;;5131856;28;20435;-61
2022/02/03 10:19:37;;;;;;;0.80;0.50;;;9.10;99.90;;;;;;5132381;28;20942;-59
2022/02/03 10:22:14;;;;;;;0.80;0.40;;;9.20;99.90;;;;;;5131715;28;20454;-58
2022/02/03 10:24:43;;;;;;;0.50;0.30;;;9.40;99.90;;;;;;5132624;28;20718;-60
2022/02/03 10:27:26;;;;;;;0.80;0.40;;;9.50;94.80;;;;;;5130661;28;20462;-59
2022/02/03 10:30:08;;;;;;;0.70;0.40;;;9.40;87.20;;;;;;5125869;28;20434;-59
2022/02/03 10:32:38;;;;;;;0.52;0.30;;;9.40;99.90;;;;;;5120051;28;20475;-58
2022/02/03 10:35:17;;;;;;;0.60;0.32;;;9.40;97.00;;;;;;5106978;28;20858;-59
2022/02/03 10:38:33;;;;;;;0.77;0.40;;;9.40;99.90;;;;;;5133332;28;20422;-59
2022/02/03 10:46:52;;;;;;;1.10;0.38;;;9.70;96.30;;;;;;5125665;28;20803;-58
2022/02/03 10:52:51;;;;;;;0.63;0.40;;;9.50;92.50;;;;;;5103426;28;20761;-59
2022/02/03 11:01:40;;;;;;;0.63;0.40;;;9.50;87.80;;;;;;5090995;28;20416;-60
2022/02/03 11:07:12;;;;;;;1.50;0.30;;;9.50;91.00;;;;;;5112348;28;20410;-58
2022/02/03 11:09:51;;;;;;;0.60;0.30;;;9.60;82.10;;;;;;5113370;28;20423;-60
2022/02/03 11:12:23;;;;;;;0.60;0.30;;;9.60;71.30;;;;;;5113710;28;20865;-60
2022/02/03 11:14:52;;;;;;;0.98;0.40;;;9.60;63.50;;;;;;5111073;28;20834;-58
2022/02/03 11:17:20;;;;;;;2.63;1.30;;;9.60;81.20;;;;;;5132189;27;20855;-59
2022/02/03 11:19:50;;;;;;;0.65;0.50;;;9.70;66.10;;;;;;5134174;27;20469;-58
2022/02/03 11:22:24;;;;;;;0.70;0.40;;;9.70;72.60;;;;;;5135245;27;20509;-61
2022/02/03 11:25:05;;;;;;;0.70;0.40;;;9.70;79.20;;;;;;5125485;27;20424;-59
2022/02/03 11:27:51;;;;;;;0.70;0.40;;;9.70;79.80;;;;;;5115750;28;20519;-59
2022/02/03 11:45:24;;;;;;;0.55;0.32;;;10.20;56.90;;;;;;5125468;27;20709;-59
2022/02/03 11:59:18;;;;;;;1.00;0.40;;;10.10;34.30;;;;;;5129420;27;20409;-60
2022/02/03 12:01:56;;;;;;;0.65;0.30;;;10.20;41.20;;;;;;5120318;27;20794;-60
2022/02/03 12:05:07;;;;;;;0.65;0.40;;;10.30;24.10;;;;;;5125975;27;20858;-60
2022/02/03 12:08:02;;;;;;;0.70;0.30;;;10.20;16.50;;;;;;5121213;27;20434;-59
2022/02/03 12:10:53;;;;;;;0.60;0.30;;;10.30;22.60;;;;;;5127263;27;20725;-60
2022/02/03 12:13:49;;;;;;;1.00;0.30;;;10.30;24.20;;;;;;5123708;27;20456;-60
2022/02/03 12:16:24;;;;;;;0.50;0.30;;;10.30;27.40;;;;;;5120943;27;20912;-58
2022/02/03 12:21:50;;;;;;;4.60;2.50;;;10.50;13.00;;;;;;5121925;27;20410;-61
2022/02/03 12:24:28;;;;;;;10.48;5.40;;;10.50;21.50;;;;;;5124017;27;20455;-58
2022/02/03 12:27:03;;;;;;;1.67;0.80;;;10.50;15.20;;;;;;5127423;27;20729;-59
2022/02/03 12:29:37;;;;;;;1.00;0.50;;;10.50;17.50;;;;;;5124341;27;20516;-59
2022/02/03 12:32:15;;;;;;;1.00;0.60;;;10.60;5.00;;;;;;5133624;27;20418;-58
2022/02/03 12:40:30;;;;;;;0.70;0.40;;;10.50;1.00;;;;;;5089767;27;20407;-59
2022/02/03 12:43:13;;;;;;;0.50;0.30;;;10.60;1.00;;;;;;5127111;27;20765;-59
2022/02/03 12:45:42;;;;;;;0.40;0.30;;;10.60;8.60;;;;;;5130458;27;20418;-59
2022/02/03 12:48:10;;;;;;;0.63;0.30;;;10.80;7.50;;;;;;5120098;27;20812;-59
2022/02/03 12:50:41;;;;;;;0.70;0.40;;;10.80;1.00;;;;;;5121437;27;20817;-59
2022/02/03 12:53:09;;;;;;;0.55;0.30;;;10.90;1.00;;;;;;5122443;27;20420;-59
2022/02/03 12:55:38;;;;;;;0.45;0.30;;;10.90;1.00;;;;;;5129780;27;20510;-59
2022/02/03 12:58:11;;;;;;;0.73;0.30;;;10.80;1.00;;;;;;5113484;27;20790;-59
2022/02/03 13:00:44;;;;;;;1.00;0.30;;;10.70;1.00;;;;;;5113157;27;20514;-59
2022/02/03 13:03:16;;;;;;;0.80;0.30;;;10.60;2.10;;;;;;5114661;27;20607;-59
2022/02/03 13:05:54;;;;;;;0.80;0.30;;;10.60;4.10;;;;;;5129016;27;20526;-60
2022/02/03 13:08:34;;;;;;;1.40;0.40;;;10.70;9.00;;;;;;5121823;27;20425;-59
2022/02/03 13:11:14;;;;;;;0.60;0.30;;;10.70;9.90;;;;;;5122032;27;20455;-59
2022/02/03 13:13:54;;;;;;;0.68;0.30;;;10.70;17.20;;;;;;5113276;28;20450;-60
2022/02/03 13:16:22;;;;;;;0.50;0.30;;;10.70;1.00;;;;;;5131053;27;20418;-60
2022/02/03 13:19:01;;;;;;;0.90;0.30;;;10.60;6.50;;;;;;5122531;27;20434;-59
2022/02/03 13:21:36;;;;;;;0.60;0.30;;;10.50;14.30;;;;;;5116069;27;20516;-59
2022/02/03 13:24:12;;;;;;;0.60;0.30;;;10.50;36.50;;;;;;5116355;27;20472;-59
2022/02/03 13:26:41;;;;;;;0.60;0.30;;;10.50;22.10;;;;;;5114721;27;20416;-59
2022/02/03 13:29:13;;;;;;;0.50;0.30;;;10.50;20.70;;;;;;5120566;27;20472;-63
2022/02/03 13:31:48;;;;;;;0.80;0.40;;;10.50;32.10;;;;;;5122357;27;20507;-59
2022/02/03 13:34:31;;;;;;;1.00;0.32;;;10.50;21.80;;;;;;5116192;27;20806;-60
2022/02/03 13:37:15;;;;;;;0.60;0.30;;;10.50;27.00;;;;;;5123101;27;20818;-59
2022/02/03 13:39:47;;;;;;;0.75;0.40;;;10.40;21.10;;;;;;5127177;27;20456;-58
2022/02/03 13:42:16;;;;;;;2.60;1.25;;;10.40;31.60;;;;;;5120447;27;20438;-59
2022/02/03 13:44:43;;;;;;;3.00;1.90;;;10.40;27.80;;;;;;5120338;27;20449;-60
2022/02/03 13:47:24;;;;;;;0.90;0.40;;;10.40;32.90;;;;;;5126110;27;20828;-59
2022/02/03 13:50:02;;;;;;;0.70;0.40;;;10.50;37.90;;;;;;5124634;27;20958;-59
2022/02/03 13:52:35;;;;;;;0.70;0.40;;;10.50;28.50;;;;;;5116614;27;20861;-59
2022/02/03 14:15:10;;;;;;;1.15;0.40;;;10.60;28.10;;;;;;5122505;28;20431;-59
2022/02/03 14:23:30;;;;;;;0.70;0.40;;;10.40;35.50;;;;;;5121766;28;20862;-60
2022/02/03 14:28:58;;;;;;;2.53;1.40;;;10.50;37.60;;;;;;5045584;28;20423;-60
2022/02/03 14:31:25;;;;;;;0.70;0.40;;;10.50;39.10;;;;;;5049025;28;20940;-60
2022/02/03 14:33:53;;;;;;;1.00;0.60;;;10.50;31.90;;;;;;5083831;28;20433;-59
2022/02/03 14:36:24;;;;;;;1.27;0.65;;;10.50;38.00;;;;;;5132561;28;20506;-60
2022/02/03 14:38:59;;;;;;;1.90;0.70;;;10.50;48.00;;;;;;5131398;28;20938;-60
2022/02/03 14:41:34;;;;;;;1.40;0.40;;;10.40;48.50;;;;;;5116809;28;20515;-60
2022/02/03 14:44:02;;;;;;;1.70;0.40;;;10.50;44.00;;;;;;5122993;28;20491;-60
2022/02/03 14:46:29;;;;;;;0.60;0.40;;;10.50;51.70;;;;;;5110827;28;20427;-61
2022/02/03 14:48:56;;;;;;;0.60;0.40;;;10.40;53.00;;;;;;5117694;28;20530;-61
2022/02/03 14:51:28;;;;;;;0.80;0.40;;;10.40;53.20;;;;;;5126888;27;20426;-61
2022/02/03 14:54:19;;;;;;;0.70;0.40;;;10.40;59.10;;;;;;5124642;27;20431;-61
2022/02/03 14:59:30;;;;;;;0.55;0.40;;;10.40;56.50;;;;;;5125132;27;20475;-61
2022/02/03 15:01:57;;;;;;;0.70;0.30;;;10.40;57.20;;;;;;5124042;27;20450;-61
2022/02/03 15:04:28;;;;;;;2.00;0.40;;;10.30;58.30;;;;;;5122179;27;20723;-62
2022/02/03 15:06:59;;;;;;;0.80;0.40;;;10.20;69.20;;;;;;5131244;27;20467;-61
2022/02/03 15:09:51;;;;;;;0.60;0.40;;;10.30;77.70;;;;;;5125617;27;20426;-61
2022/02/03 15:12:39;;;;;;;0.50;0.30;;;10.30;63.90;;;;;;5111263;28;20424;-59
2022/02/03 15:15:09;;;;;;;0.60;0.30;;;10.20;76.00;;;;;;5129709;27;20797;-61
2022/02/03 15:17:36;;;;;;;0.70;0.40;;;10.30;87.30;;;;;;5126729;27;20427;-61
2022/02/03 15:20:04;;;;;;;0.90;0.40;;;10.30;65.00;;;;;;5131576;27;20418;-60
2022/02/03 15:22:31;;;;;;;0.50;0.30;;;10.20;71.90;;;;;;5121286;27;20518;-59
2022/02/03 15:25:02;;;;;;;0.90;0.40;;;10.20;79.10;;;;;;5133827;27;20422;-60
2022/02/03 15:27:31;;;;;;;0.60;0.40;;;10.10;86.30;;;;;;5130439;27;20853;-61
2022/02/03 15:30:02;;;;;;;0.60;0.38;;;10.10;92.30;;;;;;5122658;27;20453;-61
2022/02/03 15:32:36;;;;;;;0.70;0.40;;;10.00;93.60;;;;;;5123532;27;20473;-61
2022/02/03 15:35:07;;;;;;;0.75;0.40;;;10.00;97.70;;;;;;5121214;27;20429;-61
2022/02/03 15:37:37;;;;;;;0.70;0.40;;;10.00;99.90;;;;;;5129332;27;20432;-61
2022/02/03 15:40:16;;;;;;;1.15;0.50;;;10.20;99.90;;;;;;5124457;27;20801;-61
2022/02/03 15:42:52;;;;;;;15.15;11.20;;;10.40;94.60;;;;;;5129006;27;20485;-61
2022/02/03 15:45:19;;;;;;;4.10;1.50;;;10.30;87.70;;;;;;5125076;27;20499;-60
2022/02/03 15:47:47;;;;;;;2.50;1.00;;;10.20;95.20;;;;;;5121103;27;20906;-60
2022/02/03 15:56:22;;;;;;;1.00;0.60;;;10.50;77.10;;;;;;5115650;28;20478;-61
2022/02/03 16:19:00;;;;;;;2.10;0.50;;;9.90;94.60;;;;;;5018104;28;20437;-61
2022/02/03 16:21:33;;;;;;;1.38;0.60;;;9.80;99.20;;;;;;5084901;27;20442;-61
2022/02/03 16:24:15;;;;;;;1.10;0.50;;;9.80;99.90;;;;;;5133974;27;20529;-61
2022/02/03 16:51:41;;;;;;;1.40;0.70;;;9.10;99.90;;;;;;5092878;27;20503;-61
2022/02/03 16:54:12;;;;;;;3.05;1.60;;;9.20;99.90;;;;;;5119625;27;20525;-61
2022/02/03 16:56:39;;;;;;;3.83;2.00;;;9.20;99.90;;;;;;5132329;27;20434;-60
2022/02/03 16:59:06;;;;;;;2.50;1.10;;;9.20;99.90;;;;;;5133332;27;20880;-60
2022/02/03 17:01:33;;;;;;;3.33;1.00;;;9.10;99.90;;;;;;5131975;27;20599;-60
2022/02/03 17:04:01;;;;;;;2.00;0.90;;;9.30;99.90;;;;;;5132207;27;20525;-60
2022/02/03 17:06:28;;;;;;;2.00;1.08;;;9.30;99.90;;;;;;5134279;27;20485;-60
2022/02/03 17:08:55;;;;;;;2.08;0.90;;;9.30;99.90;;;;;;5113908;27;20467;-60
2022/02/03 17:11:22;;;;;;;1.88;1.00;;;9.20;99.90;;;;;;5120480;27;20513;-60
2022/02/03 17:13:49;;;;;;;3.30;1.77;;;9.20;99.90;;;;;;5126115;27;20431;-60
2022/02/03 17:16:20;;;;;;;1.10;0.80;;;9.20;99.90;;;;;;5130987;27;20525;-61
2022/02/03 17:18:50;;;;;;;1.10;0.60;;;9.10;99.90;;;;;;5131222;27;20436;-61
2022/02/03 17:21:20;;;;;;;1.10;0.65;;;9.00;99.90;;;;;;5131876;27;20430;-60
2022/02/03 17:23:47;;;;;;;1.10;0.60;;;9.00;99.90;;;;;;5133276;27;20425;-61
2022/02/03 17:26:19;;;;;;;1.80;1.00;;;9.00;99.90;;;;;;5132567;27;20462;-60
2022/02/03 17:29:06;;;;;;;1.20;0.60;;;9.10;99.90;;;;;;5131534;27;20434;-60
2022/02/03 17:31:48;;;;;;;1.20;0.70;;;9.10;99.90;;;;;;5135461;27;20901;-60
2022/02/03 17:52:15;;;;;;;1.20;0.70;;;9.10;99.90;;;;;;5134349;27;20397;-61
2022/02/03 18:10:53;;;;;;;2.00;0.57;;;9.40;99.90;;;;;;5148887;27;20489;-62
2022/02/03 18:30:16;;;;;;;1.50;0.70;;;9.50;95.10;;;;;;5133443;27;20472;-59
2022/02/03 18:52:09;;;;;;;1.40;0.90;;;9.10;99.90;;;;;;5135078;27;20466;-59
2022/02/03 18:54:54;;;;;;;1.08;0.80;;;9.10;99.90;;;;;;5133074;27;20970;-59
2022/02/03 18:57:32;;;;;;;2.40;0.93;;;9.40;99.90;;;;;;5113239;27;20452;-59
2022/02/03 19:03:12;;;;;;;2.47;1.00;;;9.40;99.90;;;;;;5098188;28;20409;-60
2022/02/03 20:01:21;;;;;;;2.50;1.20;;;7.70;99.90;;;;;;5114176;28;20396;-60
2022/02/03 20:06:52;;;;;;;1.80;1.40;;;7.70;99.90;;;;;;5080842;27;20408;-59
2022/02/03 20:09:27;;;;;;;2.30;1.70;;;7.80;99.90;;;;;;5115740;28;20900;-60
2022/02/03 20:11:54;;;;;;;2.00;1.23;;;7.70;99.90;;;;;;5113697;28;20435;-60
2022/02/03 20:14:23;;;;;;;3.30;1.48;;;7.60;99.90;;;;;;5115025;28;20478;-59
2022/02/03 20:16:50;;;;;;;2.20;1.40;;;7.60;99.90;;;;;;5114887;28;20432;-59
2022/02/03 20:19:17;;;;;;;3.17;1.50;;;7.70;99.90;;;;;;5114370;28;20511;-60
2022/02/03 20:21:45;;;;;;;1.75;1.27;;;7.70;99.90;;;;;;5112403;28;20526;-59
2022/02/03 20:24:12;;;;;;;2.00;1.30;;;7.70;99.90;;;;;;5114242;28;20819;-59
2022/02/03 20:26:42;;;;;;;2.30;1.30;;;7.70;99.90;;;;;;5113089;28;20481;-60
2022/02/03 20:29:10;;;;;;;2.20;1.50;;;7.70;99.90;;;;;;5113304;28;20420;-60
2022/02/03 20:31:37;;;;;;;3.03;1.48;;;7.70;99.90;;;;;;5115027;28;20452;-60
2022/02/03 20:34:04;;;;;;;2.60;1.40;;;7.60;99.90;;;;;;5114528;28;20506;-60
2022/02/03 20:36:31;;;;;;;3.00;1.90;;;7.50;99.90;;;;;;5113187;28;20805;-60
2022/02/03 20:38:58;;;;;;;2.60;1.50;;;7.50;99.90;;;;;;5113459;28;20507;-60
2022/02/03 20:41:25;;;;;;;4.15;1.80;;;7.50;99.90;;;;;;5112735;28;20420;-59
2022/02/03 20:43:53;;;;;;;2.88;1.70;;;7.60;99.90;;;;;;5113973;28;20487;-60
2022/02/03 20:46:22;;;;;;;2.90;2.10;;;7.70;99.90;;;;;;5114073;28;20528;-59
2022/02/03 20:48:49;;;;;;;3.22;1.90;;;7.70;99.90;;;;;;5112988;28;20427;-59
2022/02/03 20:51:19;;;;;;;3.08;1.80;;;7.70;99.90;;;;;;5112548;28;20481;-59
2022/02/03 20:53:48;;;;;;;3.20;1.70;;;7.70;99.90;;;;;;5113777;28;20504;-60
2022/02/03 20:56:17;;;;;;;2.30;1.40;;;7.70;99.90;;;;;;5112195;28;20489;-60
2022/02/03 20:58:43;;;;;;;2.30;1.40;;;7.60;99.90;;;;;;5113357;28;20416;-59
2022/02/03 21:01:17;;;;;;;1.80;1.20;;;7.60;99.90;;;;;;5110025;28;20503;-60
2022/02/03 21:03:46;;;;;;;1.80;1.10;;;7.60;99.90;;;;;;5109844;28;20862;-60
2022/02/03 21:06:14;;;;;;;1.60;1.10;;;7.60;99.90;;;;;;5109258;28;20428;-59
2022/02/03 21:08:45;;;;;;;1.55;1.10;;;7.50;99.90;;;;;;5111816;28;20827;-60
2022/02/03 21:11:13;;;;;;;1.70;1.20;;;7.50;99.90;;;;;;5110400;28;20423;-60
2022/02/03 21:13:40;;;;;;;1.58;1.10;;;7.50;99.90;;;;;;5111392;28;20511;-59
2022/02/03 21:16:08;;;;;;;4.45;1.20;;;7.50;99.90;;;;;;5109782;28;20468;-59
2022/02/03 21:18:40;;;;;;;3.00;1.50;;;7.40;99.90;;;;;;5112331;28;20507;-59
2022/02/03 21:21:08;;;;;;;2.30;1.50;;;7.40;99.90;;;;;;5111633;28;20434;-60
2022/02/03 21:23:35;;;;;;;1.90;1.40;;;7.40;99.90;;;;;;5113186;28;20499;-61
2022/02/03 21:26:06;;;;;;;1.92;1.20;;;7.40;99.90;;;;;;5113035;28;20518;-60
2022/02/03 21:28:34;;;;;;;2.33;1.10;;;7.30;99.90;;;;;;5112282;28;20412;-59
2022/02/03 21:31:04;;;;;;;4.00;1.30;;;7.20;99.90;;;;;;5112899;28;20441;-59
2022/02/03 21:33:33;;;;;;;2.40;1.40;;;7.30;99.90;;;;;;5115336;28;20590;-61
2022/02/03 21:36:09;;;;;;;3.80;1.52;;;7.30;99.90;;;;;;5114124;28;20432;-58
2022/02/03 21:38:37;;;;;;;2.72;1.50;;;7.30;99.90;;;;;;5115203;28;20416;-60
2022/02/03 21:41:04;;;;;;;2.25;1.60;;;7.30;99.90;;;;;;5115059;28;20481;-60
2022/02/03 21:43:31;;;;;;;3.58;1.50;;;7.30;99.90;;;;;;5115042;28;20428;-60
2022/02/03 21:45:58;;;;;;;3.45;1.50;;;7.30;99.90;;;;;;5115020;28;20521;-59
2022/02/03 21:48:25;;;;;;;2.40;1.30;;;7.30;99.90;;;;;;5115719;28;20483;-59
2022/02/03 21:50:54;;;;;;;2.30;1.33;;;7.40;99.90;;;;;;5113627;28;20783;-59
2022/02/03 21:53:27;;;;;;;2.30;1.23;;;7.40;99.90;;;;;;5113062;28;20728;-60
2022/02/03 21:55:55;;;;;;;3.20;1.50;;;7.30;99.90;;;;;;5111191;28;20432;-60
2022/02/03 21:58:25;;;;;;;3.05;1.50;;;7.20;99.90;;;;;;5112465;28;20416;-59